Timeline UpdatesTrip UpdatesNews PostsPvt PostsTravel TipsAdmin PostsConv PostsFollowed PostsChat RequestsBlog PostsPNR Posts

Disclaimer
Search
 
 
Sun Sep 21, 2014 05:34:55 ISTHomeTrainsΣChainsAtlasPNRForumGalleryNewsFAQTripsMembersLoginFeedback
No Recent News for this Train
Other Trains in the News **new
Latest...
.
Tue Oct 29, 2013 (01:06PM)
⇐ Return Journey: Train# 18646

18645/East Coast Express

Time-Table HAS CHANGED.
Sep 03 (8:30PM)
Change Departure Station:
Change Arrival Station:
Post a Train Travel TipPost a Train Travel Tip **new
Post a Comment/Question/Picture/VideoPost a Comment/Question/Picture/Video
Inaugural Run
Fri May 16, 1975
Pantry/Catering
✕ NO Pantry Car
✓ Catering Avbl
Loco/Rake Reversals
VSKP/Visakhapatnam Junction (8); BZA/Vijayawada Junction (10);
RSA - Rake Sharing
18616/18615 Hatia-Howrah Express-18645/18646 Howrah-Hyderabad East Coast Express.; http://goo.gl/eoVrw
Rake/Coach Composition
HCPV-HCPV-SLR-GS-A1-B1-B2-B3-B4-S11-S10-S9-S8-S7-S6-S5-S4-S3-S2-S1-GS-SLR-ENG.; As seen at SRC by Sabyasachi on 12-12-2012.
Loco
HWH - VSKP: SRC WAP-4 VSKP - BZA: LGD WAP-4 BZA -...
Read more...
VSKP: LGD WAP-4
News    PNR    Forum    Time-Table    Availability    Fare Chart    Map    Arr/Dep History    Trips    Gallery    ΣChains    X/O    Timeline    
Travel Time: 30h 15m    56 halts    Distance: 1580 km    Avg Speed: 52 km/hr
Type: Mail/Express
Zone: SER/South Eastern
Departs @ 11:45
Platform# 22
SMTWTFS
Kolkata Howrah Junction/HWH 
Arrives @ 18:00 +1 night
Platform# 5
SMTWTFS
Secunderabad Junction/SC 

56 halts. 266 intermediate Stations between Kolkata Howrah Junction and Secunderabad Junction

Show ALL intermediate Stations  Show Old Time-Table

#CodeStation NameX/OArrivesAvgDepartsAvgHaltPFDay#KmSpeedElevZoneAddress
1HWHKolkata Howrah Junction (23)»  -11:45-2210.06610mERHowrah 711101, West Bengal
2MCAMecheda (6)X  12:40 12:38-12:42 12:40-2m--158.23710mSERdist - purba Medinipur, West Bengal
3PKUPanskura Junction (6)X  13:03 13:00-13:04 13:02-1 2m--170.6599mSERPanskura, West Bengal
4KGPKharagpur Junction (10)X  13:47-13:52-5m11115.07342mSERKharagpur, West Bengal
5BLDABelda (4)  14:22 14:21-14:23-1 2m--1150.57924mSERDistrict Paschim Medinipur, West Bengal
6JERJaleswar (4)  14:49 14:48-14:50-1 2m--1183.66513mSERJaleswar, Odisha
7BTSBasta (3)  15:09 15:08-15:10-1 2m--1203.14716mSERBasta, Odisha
8ROPRupsa Junction (5)XO  15:24 15:23-15:25-1 2m--1213.35313mSERRupsa, Odisha
9BLSBalasore (4)  15:45-15:50-5m--1231.18719mSERBalasore, Odisha
10SOROSoroX  16:14 16:13-16:15-1 2m--1264.66814mSERSoro, Odisha
11MKOMarkonaX  16:29 16:28-16:30-1 2m--1279.32018mSERMarkuna, Odisha
12BHCBhadrak (4)  17:13-17:15-2m--1293.68323mECoRBhadrak, Odisha
13BTVBaitarani Road  17:36 17:38-17:37 17:39-1m--1325.46927mECoRBaitarani, Odisha
14KRIHKorai Halt  17:44 17:45-17:45 17:46-1m--1332.34930mECoRJajapur, Odisha
15JJKRJajpur Keonjhar Road (4)  17:51 17:52-17:52 17:54-1 2m--1337.28836mECoRJajpur, Odisha
16DNMDhanmandal (3)X  18:20 18:19-18:21 18:20-1m--1373.75838mECoRDhanmanda, Odisha
17CTCCuttack Junction (5)X  18:55 18:57-19:00 19:02-5m31409.24628mECoRCuttack, Odisha
18BRAGBarang  19:17 19:18-19:18 19:19-1m--1421.43027mECoRDist - Cuttack, Odisha
19BBSBhubaneswar (4)X  19:45 19:50-19:50 19:55-5m41437.13840mECoRBhubaneshwar, Odisha
20KURKhurda Road Junction (7)X  20:20 20:25-20:35 20:40-15m81456.07625mECoRKhordha, Odisha
21NKPNirakarpur  20:57 21:01-20:58 21:03-1 2m--1482.57821mECoRNirakarpur, Odisha
22KAPGKalupara Ghat  21:12 21:16-21:13 21:18-1 2m31499.48310mECoRChandeswar, Odisha
23BALUBalugaon (3)  21:35 21:38-21:36 21:40-1 2m21527.16211mECoR752030, Odisha
24CLKAChilka  21:44 21:47-21:45 21:49-1 2m--1534.36725mECoRBarkul, Odisha
25KITKhallikot (3)  21:54 21:58-21:55 22:00-1 2m--1544.37513mECoRKhallikot, Odisha
26CAPChatrapur  22:23 22:30-22:24 22:32-1 2m--1581.77236mECoRChatrapur, Odisha
27BAMBrahmapur (3)O  22:40 22:50-22:50 23:00-10m21603.27027mECoRBerhampur, Odisha
28IPMIchchapuramX  23:13 23:21-23:14 23:23-1 2m--1627.68321mECoRIchchapuram, Andhra Pradesh
29SPTSompeta (4)XO  23:28 23:36-23:29 23:38-1 2m--1645.63548mECoRKanchili, Andhra Pradesh
30PSAPalasa (3)  00:18 00:33-00:20 00:35-2m--2677.57731mECoRKasibugga, Andhra Pradesh
31NWPNaupada Junction  00:43 00:55-00:44 00:57-1 2m--2703.28613mECoRNuapada . ph.no. 08945-249728, Andhra Pradesh
32CHESrikakulam Road (4)  01:20 01:30-01:22 01:32-2m--2750.58334mECoRsrikakulam road ph .no. 08942-287222, Andhra Pradesh
33CPPChipurupalleX  01:53 02:00-01:54 02:02-1 2m--2789.15699mECoRCheepurupalli, Andhra Pradesh
34VZMVizianagaram Junction (5)  02:30 02:35-02:35 02:40-5m--2820.07563mECoRVizianagaram, Andhra Pradesh
35KTVKottavalasa Junction (5)X  03:03 03:08-03:04 03:10-1 2m--2855.07758mECoRVizianagaram District, Andhra Pradesh
36SCMSimhachalam (2)  03:21 03:24-03:22 03:26-1 2m--2873.01727mECoRVisakhapatnam, Andhra Pradesh
37VSKPVisakhapatnam Junction (8)XO03:45 03:55-04:05 04:15-20m32881.23311mECoRVishakhapatnam 530001, Andhra Pradesh
38DVDDuvvada (4)X  04:33 04:45-04:35 04:47-2m12897.54446mECoRVishakhapatnam District, Andhra Pradesh
39AKPAnakapalle (3)X  04:53 05:09-04:54 05:10-1m22913.55930mSCRAnakapalle ph.no . 08924-221698, Andhra Pradesh
40YLMElamanchili (2)X  05:14 05:34-05:15 05:35-1m12937.27123mSCRVisakhapatnam District, Andhra Pradesh
41TUNITuni (2)X  05:43 06:09-05:44 06:10-1m12977.36224mSCRTuni ph.no. 08854-252172, Andhra Pradesh
42ANVAnnavaram (3)XO  05:58 06:26-05:59 06:27-1m12993.94627mSCREast Godavari District, Andhra Pradesh
43PAPPithapuram (2)O  06:19 06:59-06:20 07:00-1m121018.78022mSCREast Godavari District, Andhra Pradesh
44SLOSamalkot Junction (3)XO  06:34 07:09-06:35 07:10-1m321030.86318mSCRSamalkot, Andhra Pradesh
45DWPDwarapudi (3)X07:04 07:39-07:05 07:40-1m--21061.14020mSCREast Godavari District, Andhra Pradesh
46RJYRajahmundry (3)  07:42 08:10-07:44 08:12-2m121081.05523mSCRRajahmundry ph.no. 0883-2420541, Andhra Pradesh
47NDDNidadavolu Junction (3)X  08:08 08:36-08:09 08:37-1m221103.17520mSCRNidadavolu jtn ph.no. 08813-210325, Andhra Pradesh
48TDDTadepalligudem (3)  08:26 08:53-08:27 08:54-1m321123.19218mSCRTadepalligudem, Andhra Pradesh
49EEEluru (3)  09:00 09:25-09:01 09:26-1m321170.93319mSCREluru Ph.no. 08812 226401., Andhra Pradesh
50BZAVijayawada Junction (10)X11:00 11:15-11:20 11:35-20m121230.29324mSCRVijayawada 520001, Andhra Pradesh
51KMTKhammam (2)X  12:30 12:40-12:32 12:42-2m221330.666118mSCRKhammam 507001, Telangana
52MABDMahbubabad (2)  13:15 13:25-13:16 13:26-1m221378.158200mSCRWarangal Dist., Telangana
53WLWarangal (3)  14:08 14:28-14:10 14:30-2m221438.247271mSCRWarangal., Telangana
54KZJKazipet Junction (3)X  14:40 14:43-14:42 14:45-2m321448.464292mSCRWarangal Dist., Telangana
55ZNJangaon (2)  15:31 15:30-15:32-1 2m121496.339380mSCRWarangal Dist., Telangana
56ALERAler (2)  15:55-15:56-1m221511.345366mSCRNalgonda Dist., Telangana
57BGBhongir (3)X  16:26-16:27-1m121533.630455mSCRNalgonda Dist., Telangana
58SCSecunderabad Junction (10)•X  18:00-18:05-5m521580.022539mSCRSecunderabad 500003, Telangana
59HYBHyderabad Deccan Nampally (6)  18:30--521589.2-510mSCRHyderabad, Telangana
Scroll to Top
Scroll to Bottom